Terminal Aerodrome Forecast
Issued by NWS

Home | Current Version | Previous Version | Text Only | Print | Product List | Glossary On
Versions: 1 2 3 4 5 6 7 8 9 10 11 12 13 14 15
000
FTUS42 KFFC 272300
TAFPDK
TAF
KPDK 272320Z 2800/2824 00000KT P6SM SKC
     FM281400 VRB03KT P6SM FEW040
     FM281800 23004KT P6SM FEW060=

USA.gov is the U.S. government's official web portal to all federal, state and local government web resources and services.